createdAt,value
2023-01-29T00:02:04.777Z,-1.26
2023-01-29T00:04:32.062Z,-1.22
2023-01-29T00:06:59.324Z,-1.19
2023-01-29T00:09:27.089Z,-1.32
2023-01-29T00:11:53.680Z,-1.35
2023-01-29T00:14:21.898Z,-1.36
2023-01-29T00:16:48.764Z,-1.29
2023-01-29T00:19:21.521Z,-1.25
2023-01-29T00:21:49.275Z,-1.11
2023-01-29T00:24:15.987Z,-1.28
2023-01-29T00:26:43.268Z,-1.13
2023-01-29T00:29:10.238Z,-1.16
2023-01-29T00:31:37.207Z,-1.15
2023-01-29T00:34:04.334Z,-1.22
2023-01-29T00:36:33.990Z,-1.28
2023-01-29T00:39:03.496Z,-1.30
2023-01-29T00:41:50.620Z,-1.18
2023-01-29T00:44:36.314Z,-1.26
2023-01-29T00:47:03.880Z,-1.30
2023-01-29T00:49:38.284Z,-1.25
2023-01-29T00:52:23.553Z,-1.13
2023-01-29T00:54:50.837Z,-1.18
2023-01-29T00:57:17.431Z,-1.10
2023-01-29T00:59:44.047Z,-1.11
2023-01-29T01:02:29.375Z,-0.95
2023-01-29T01:04:56.054Z,-0.99
2023-01-29T01:07:22.831Z,-1.14
2023-01-29T01:10:08.179Z,-1.12
2023-01-29T01:12:35.120Z,-1.16
2023-01-29T01:15:01.891Z,-1.14
2023-01-29T01:17:28.785Z,-1.06
2023-01-29T01:19:57.470Z,-1.01
2023-01-29T01:22:24.123Z,-1.11
2023-01-29T01:24:50.760Z,-1.16
2023-01-29T01:27:19.547Z,-1.09
2023-01-29T01:29:46.900Z,-1.03
2023-01-29T01:32:13.819Z,-0.92
2023-01-29T01:34:40.439Z,-0.95
2023-01-29T01:37:07.020Z,-1.01
2023-01-29T01:39:33.805Z,-1.04
2023-01-29T01:42:00.417Z,-1.11
2023-01-29T01:44:51.527Z,-1.05
2023-01-29T01:47:22.440Z,-1.03
2023-01-29T01:49:53.698Z,-1.00
2023-01-29T01:52:21.102Z,-0.96
2023-01-29T01:54:48.114Z,-1.02
2023-01-29T01:57:18.130Z,-0.91
2023-01-29T01:59:50.538Z,-0.90
2023-01-29T02:02:36.252Z,-0.89
2023-01-29T02:05:21.519Z,-0.92
2023-01-29T02:08:08.240Z,-0.96
2023-01-29T02:10:43.878Z,-0.96
2023-01-29T02:13:10.723Z,-0.92
2023-01-29T02:15:37.546Z,-1.00
2023-01-29T02:18:04.234Z,-0.86
2023-01-29T02:20:34.195Z,-0.92
2023-01-29T02:23:08.732Z,-1.06
2023-01-29T02:26:10.954Z,-0.99
2023-01-29T02:28:45.686Z,-1.00
2023-01-29T02:31:17.471Z,-0.95
2023-01-29T02:33:56.142Z,-1.08
2023-01-29T02:36:28.050Z,-0.91
2023-01-29T02:39:20.149Z,-1.01
2023-01-29T02:41:56.152Z,-0.97
2023-01-29T02:44:40.428Z,-0.95
2023-01-29T02:47:21.067Z,-0.87
2023-01-29T02:49:53.051Z,-1.00
2023-01-29T02:52:23.285Z,-0.97
2023-01-29T02:54:55.358Z,-0.91
2023-01-29T02:57:29.170Z,-0.81
2023-01-29T02:59:59.516Z,-0.82
2023-01-29T03:02:30.865Z,-0.86
2023-01-29T03:05:01.166Z,-0.85
2023-01-29T03:07:42.477Z,-0.86
2023-01-29T03:10:20.150Z,-0.90
2023-01-29T03:12:51.663Z,-0.92
2023-01-29T03:15:25.153Z,-0.85
2023-01-29T03:17:58.310Z,-0.86
2023-01-29T03:20:29.760Z,-0.77
2023-01-29T03:23:01.393Z,-0.80
2023-01-29T03:25:47.242Z,-0.81
2023-01-29T03:28:35.260Z,-0.89
2023-01-29T03:31:26.183Z,-0.90
2023-01-29T03:34:00.752Z,-0.78
2023-01-29T03:36:38.306Z,-0.93
2023-01-29T03:39:11.481Z,-0.89
2023-01-29T03:41:54.032Z,-0.88
2023-01-29T03:44:37.173Z,-0.87
2023-01-29T03:47:27.338Z,-0.92
2023-01-29T03:50:00.718Z,-0.97
2023-01-29T03:52:40.182Z,-0.91
2023-01-29T03:55:26.496Z,-0.91
2023-01-29T03:57:58.931Z,-0.90
2023-01-29T04:00:32.357Z,-0.87
2023-01-29T04:03:24.779Z,-0.91
2023-01-29T04:05:58.625Z,-0.98
2023-01-29T04:08:28.148Z,-1.00
2023-01-29T04:11:02.088Z,-0.94
2023-01-29T04:13:31.501Z,-0.88
2023-01-29T04:15:59.339Z,-0.87
2023-01-29T04:18:26.095Z,-0.97
2023-01-29T04:20:53.053Z,-0.92
2023-01-29T04:23:24.763Z,-0.97
2023-01-29T04:26:07.181Z,-0.96
2023-01-29T04:28:55.236Z,-0.97
2023-01-29T04:31:27.050Z,-0.97
2023-01-29T04:34:38.848Z,-0.79
2023-01-29T04:37:16.692Z,-0.81
2023-01-29T04:39:56.756Z,-0.85
2023-01-29T04:42:30.453Z,-0.86
2023-01-29T04:45:18.991Z,-0.77
2023-01-29T04:48:14.106Z,-0.79
2023-01-29T04:50:49.624Z,-0.80
2023-01-29T04:53:38.830Z,-0.84
2023-01-29T04:56:20.915Z,-0.70
2023-01-29T04:58:52.998Z,-0.60
2023-01-29T05:01:20.205Z,-0.66
2023-01-29T05:03:50.455Z,-0.63
2023-01-29T05:06:18.425Z,-0.57
2023-01-29T05:08:46.063Z,-0.50
2023-01-29T05:11:14.423Z,-0.54
2023-01-29T05:13:42.167Z,-0.59
2023-01-29T05:16:41.915Z,-0.61
2023-01-29T05:19:15.892Z,-0.53
2023-01-29T05:21:45.062Z,-0.52
2023-01-29T05:24:22.441Z,-0.52
2023-01-29T05:27:09.432Z,-0.52
2023-01-29T05:29:36.140Z,-0.36
2023-01-29T05:32:04.073Z,-0.30
2023-01-29T05:34:30.777Z,-0.40
2023-01-29T05:36:57.435Z,-0.44
2023-01-29T05:39:24.145Z,-0.45
2023-01-29T05:41:50.797Z,-0.41
2023-01-29T05:44:17.616Z,-0.42
2023-01-29T05:46:45.155Z,-0.45
2023-01-29T05:49:12.271Z,-0.37
2023-01-29T05:51:39.065Z,-0.41
2023-01-29T05:54:08.045Z,-0.33
2023-01-29T05:56:34.689Z,-0.28
2023-01-29T05:59:01.327Z,-0.24
2023-01-29T06:01:28.036Z,-0.26
2023-01-29T06:03:54.710Z,-0.38
2023-01-29T06:06:21.502Z,-0.25
2023-01-29T06:08:51.312Z,-0.38
2023-01-29T06:11:18.435Z,-0.33
2023-01-29T06:13:45.887Z,-0.28
2023-01-29T06:16:13.620Z,-0.34
2023-01-29T06:18:40.793Z,-0.35
2023-01-29T06:21:10.974Z,-0.29
2023-01-29T06:23:37.966Z,-0.25
2023-01-29T06:26:07.599Z,-0.16
2023-01-29T06:28:34.380Z,-0.30
2023-01-29T06:31:23.817Z,-0.27
2023-01-29T06:33:52.045Z,-0.29
2023-01-29T06:36:18.870Z,-0.23
2023-01-29T06:38:45.615Z,-0.15
2023-01-29T06:41:13.356Z,-0.30
2023-01-29T06:43:40.246Z,-0.12
2023-01-29T06:46:08.104Z,-0.11
2023-01-29T06:48:35.428Z,-0.10
2023-01-29T06:51:06.204Z,-0.18
2023-01-29T06:53:37.038Z,-0.02
2023-01-29T06:56:04.816Z,-0.10
2023-01-29T06:58:31.419Z,-0.12
2023-01-29T07:01:06.760Z,-0.14
2023-01-29T07:03:33.992Z,-0.15
2023-01-29T07:06:01.180Z,-0.12
2023-01-29T07:08:28.586Z,0.00
2023-01-29T07:11:00.207Z,-0.01
2023-01-29T07:13:27.182Z,-0.11
2023-01-29T07:15:53.931Z,0.00
2023-01-29T07:18:20.708Z,-0.07
2023-01-29T07:20:47.511Z,-0.09
2023-01-29T07:23:14.537Z,-0.05
2023-01-29T07:25:41.432Z,-0.02
2023-01-29T07:28:08.270Z,-0.09
2023-01-29T07:30:35.518Z,-0.09
2023-01-29T07:33:06.384Z,0.03
2023-01-29T07:35:42.000Z,-0.05
2023-01-29T07:38:09.983Z,0.03
2023-01-29T07:40:37.324Z,0.03
2023-01-29T07:43:06.704Z,-0.03
2023-01-29T07:45:38.483Z,0.05
2023-01-29T07:48:07.130Z,0.08
2023-01-29T07:50:34.934Z,0.07
2023-01-29T07:53:02.055Z,0.07
2023-01-29T07:55:31.557Z,0.05
2023-01-29T07:57:59.608Z,0.02
2023-01-29T08:00:26.667Z,0.12
2023-01-29T08:02:53.433Z,0.18
2023-01-29T08:05:20.263Z,0.07
2023-01-29T08:08:05.831Z,0.25
2023-01-29T08:10:33.610Z,0.22
2023-01-29T08:13:01.704Z,0.26
2023-01-29T08:15:28.766Z,0.17
2023-01-29T08:17:57.962Z,0.11
2023-01-29T08:20:25.699Z,0.20
2023-01-29T08:23:03.572Z,0.24
2023-01-29T08:25:30.348Z,0.20
2023-01-29T08:27:58.025Z,0.31
2023-01-29T08:30:29.714Z,0.30
2023-01-29T08:32:56.372Z,0.27
2023-01-29T08:35:23.373Z,0.37
2023-01-29T08:37:55.094Z,0.32
2023-01-29T08:40:22.192Z,0.37
2023-01-29T08:42:48.803Z,0.43
2023-01-29T08:45:15.475Z,0.44
2023-01-29T08:47:49.794Z,0.40
2023-01-29T08:50:17.773Z,0.44
2023-01-29T08:55:31.576Z,0.40
2023-01-29T08:57:58.287Z,0.47
2023-01-29T09:00:24.978Z,0.45
2023-01-29T09:02:51.986Z,0.49
2023-01-29T09:05:19.099Z,0.49
2023-01-29T09:07:46.027Z,0.51
2023-01-29T09:10:13.419Z,0.55
2023-01-29T09:12:40.150Z,0.59
2023-01-29T09:15:07.373Z,0.66
2023-01-29T09:17:34.141Z,0.53
2023-01-29T09:20:00.831Z,0.56
2023-01-29T09:22:27.531Z,0.60
2023-01-29T09:24:55.828Z,0.66
2023-01-29T09:27:22.518Z,0.70
2023-01-29T09:29:49.129Z,0.71
2023-01-29T09:32:23.205Z,0.68
2023-01-29T09:34:58.494Z,0.75
2023-01-29T09:37:25.131Z,0.66
2023-01-29T09:39:51.807Z,0.74
2023-01-29T09:42:19.793Z,0.84
2023-01-29T09:45:04.867Z,0.79
2023-01-29T09:47:33.985Z,0.81
2023-01-29T09:50:07.390Z,0.78
2023-01-29T09:52:41.584Z,0.76
2023-01-29T09:55:42.692Z,0.88
2023-01-29T09:58:19.708Z,0.88
2023-01-29T10:00:57.336Z,0.90
2023-01-29T10:04:01.586Z,0.87
2023-01-29T10:07:05.765Z,0.92
2023-01-29T10:10:04.270Z,0.95
2023-01-29T10:12:54.083Z,0.96
2023-01-29T10:15:23.623Z,0.95
2023-01-29T10:18:13.476Z,0.94
2023-01-29T10:21:01.971Z,0.99
2023-01-29T10:23:35.370Z,0.95
2023-01-29T10:26:02.316Z,0.97
2023-01-29T10:28:33.956Z,1.05
2023-01-29T10:31:04.832Z,1.11
2023-01-29T10:33:54.248Z,1.10
2023-01-29T10:36:33.448Z,1.17
2023-01-29T10:39:00.250Z,1.17
2023-01-29T10:41:48.323Z,1.28
2023-01-29T10:44:26.081Z,1.26
2023-01-29T10:47:40.610Z,1.23
2023-01-29T10:50:28.822Z,1.29
2023-01-29T10:53:11.390Z,1.30
2023-01-29T10:56:21.928Z,1.28
2023-01-29T10:58:55.842Z,1.27
2023-01-29T11:01:22.691Z,1.23
2023-01-29T11:03:59.864Z,1.24
2023-01-29T11:06:34.965Z,1.17
2023-01-29T11:09:29.587Z,1.21
2023-01-29T11:12:03.740Z,1.25
2023-01-29T11:14:34.279Z,1.29
2023-01-29T11:17:01.015Z,1.35
2023-01-29T11:19:43.870Z,1.33
2023-01-29T11:22:21.832Z,1.32
2023-01-29T11:25:17.998Z,1.38
2023-01-29T11:27:46.195Z,1.42
2023-01-29T11:30:29.005Z,1.51
2023-01-29T11:33:14.420Z,1.54
2023-01-29T11:35:41.161Z,1.59
2023-01-29T11:38:22.021Z,1.55
2023-01-29T11:40:48.749Z,1.57
2023-01-29T11:43:22.654Z,1.65
2023-01-29T11:45:51.687Z,1.59
2023-01-29T11:48:21.193Z,1.74
2023-01-29T11:50:52.773Z,1.88
2023-01-29T11:53:40.124Z,1.91
2023-01-29T11:56:20.838Z,1.88
2023-01-29T11:58:49.154Z,1.93
2023-01-29T12:01:17.794Z,1.84
2023-01-29T12:03:50.646Z,1.89
2023-01-29T12:06:27.153Z,1.88
2023-01-29T12:08:58.864Z,1.97
2023-01-29T12:11:33.941Z,2.03
2023-01-29T12:14:02.859Z,1.96
2023-01-29T12:16:37.191Z,1.96
2023-01-29T12:19:28.280Z,1.89
2023-01-29T12:22:21.225Z,2.11
2023-01-29T12:24:58.661Z,2.08
2023-01-29T12:27:43.559Z,2.08
2023-01-29T12:30:30.543Z,2.11
2023-01-29T12:33:08.917Z,2.16
2023-01-29T12:35:46.392Z,2.20
2023-01-29T12:38:20.880Z,2.25
2023-01-29T12:40:58.875Z,2.25
2023-01-29T12:43:39.008Z,2.25
2023-01-29T12:46:10.409Z,2.17
2023-01-29T12:48:39.885Z,2.23
2023-01-29T12:51:14.445Z,2.26
2023-01-29T12:53:48.838Z,2.26
2023-01-29T12:56:23.364Z,2.37
2023-01-29T12:58:53.106Z,2.33
2023-01-29T13:01:26.907Z,2.36
2023-01-29T13:04:12.566Z,2.44
2023-01-29T13:06:49.015Z,2.39
2023-01-29T13:09:23.735Z,2.31
2023-01-29T13:11:55.089Z,2.32
2023-01-29T13:14:52.049Z,2.39
2023-01-29T13:17:32.593Z,2.44
2023-01-29T13:20:12.843Z,2.41
2023-01-29T13:22:41.103Z,2.37
2023-01-29T13:25:15.654Z,2.41
2023-01-29T13:27:43.045Z,2.34
2023-01-29T13:30:31.084Z,2.41
2023-01-29T13:33:09.508Z,2.47
2023-01-29T13:35:42.972Z,2.51
2023-01-29T13:38:27.982Z,2.52
2023-01-29T13:41:05.609Z,2.64
2023-01-29T13:43:38.667Z,2.62
2023-01-29T13:46:14.590Z,2.65
2023-01-29T13:48:43.153Z,2.65
2023-01-29T13:51:21.759Z,2.62
2023-01-29T13:54:13.364Z,2.62
2023-01-29T13:56:39.866Z,2.61
2023-01-29T13:59:22.798Z,2.65
2023-01-29T14:01:49.350Z,2.56
2023-01-29T14:04:19.112Z,2.60
2023-01-29T14:06:48.545Z,2.57
2023-01-29T14:09:39.801Z,2.50
2023-01-29T14:12:21.629Z,2.51
2023-01-29T14:14:48.198Z,2.42
2023-01-29T14:17:16.455Z,2.41
2023-01-29T14:19:48.803Z,2.37
2023-01-29T14:22:24.533Z,2.26
2023-01-29T14:24:55.424Z,2.26
2023-01-29T14:27:25.478Z,2.33
2023-01-29T14:29:57.647Z,2.28
2023-01-29T14:32:26.116Z,2.21
2023-01-29T14:35:01.585Z,2.18
2023-01-29T14:37:33.841Z,2.17
2023-01-29T14:40:15.701Z,2.19
2023-01-29T14:43:01.649Z,2.14
2023-01-29T14:45:39.020Z,2.11
2023-01-29T14:48:11.791Z,2.12
2023-01-29T14:50:59.629Z,2.08
2023-01-29T14:53:49.156Z,2.07
2023-01-29T14:56:25.079Z,2.00
2023-01-29T14:58:58.773Z,2.05
2023-01-29T15:05:05.230Z,2.06
2023-01-29T15:07:39.750Z,2.05
2023-01-29T15:10:22.847Z,2.04
2023-01-29T15:13:12.838Z,2.03
2023-01-29T15:16:16.546Z,2.05
2023-01-29T15:18:43.782Z,2.04
2023-01-29T15:21:12.690Z,1.91
2023-01-29T15:23:40.821Z,1.88
2023-01-29T15:26:16.314Z,1.89
2023-01-29T15:28:47.095Z,1.92
2023-01-29T15:31:18.334Z,1.92
2023-01-29T15:33:46.343Z,1.94
2023-01-29T15:36:33.302Z,1.92
2023-01-29T15:39:21.615Z,1.93
2023-01-29T15:41:48.952Z,1.85
2023-01-29T15:44:21.855Z,1.81
2023-01-29T15:46:55.951Z,1.83
2023-01-29T15:49:29.876Z,1.85
2023-01-29T15:52:03.647Z,1.86
2023-01-29T15:54:31.559Z,1.79
2023-01-29T15:56:58.920Z,1.78
2023-01-29T15:59:29.846Z,1.75
2023-01-29T16:01:56.612Z,1.82
2023-01-29T16:04:29.141Z,1.82
2023-01-29T16:06:59.023Z,1.84
2023-01-29T16:09:45.900Z,1.80
2023-01-29T16:12:38.356Z,1.79
2023-01-29T16:15:05.889Z,1.80
2023-01-29T16:17:36.573Z,1.76
2023-01-29T16:20:08.069Z,1.81
2023-01-29T16:22:36.518Z,1.80
2023-01-29T16:25:08.653Z,1.74
2023-01-29T16:27:35.472Z,1.71
2023-01-29T16:30:04.800Z,1.71
2023-01-29T16:32:31.573Z,1.70
2023-01-29T16:34:59.878Z,1.77
2023-01-29T16:37:29.087Z,1.71
2023-01-29T16:39:55.929Z,1.72
2023-01-29T16:42:32.271Z,1.72
2023-01-29T16:45:04.647Z,1.76
2023-01-29T16:47:37.034Z,1.65
2023-01-29T16:50:22.682Z,1.76
2023-01-29T16:53:03.765Z,1.68
2023-01-29T16:55:37.411Z,1.64
2023-01-29T16:58:21.953Z,1.64
2023-01-29T17:01:09.439Z,1.68
2023-01-29T17:03:37.480Z,1.72
2023-01-29T17:06:20.306Z,1.54
2023-01-29T17:08:46.960Z,1.56
2023-01-29T17:11:25.042Z,1.54
2023-01-29T17:13:55.228Z,1.59
2023-01-29T17:16:26.733Z,1.64
2023-01-29T17:18:53.901Z,1.55
2023-01-29T17:21:20.573Z,1.61
2023-01-29T17:23:47.515Z,1.54
2023-01-29T17:26:14.508Z,1.55
2023-01-29T17:28:41.837Z,1.61
2023-01-29T17:31:09.203Z,1.59
2023-01-29T17:33:42.669Z,1.50
2023-01-29T17:36:12.470Z,1.54
2023-01-29T17:38:39.664Z,1.51
2023-01-29T17:41:08.359Z,1.50
2023-01-29T17:43:34.983Z,1.45
2023-01-29T17:46:01.708Z,1.45
2023-01-29T17:48:30.037Z,1.49
2023-01-29T17:51:03.095Z,1.52
2023-01-29T17:53:44.241Z,1.50
2023-01-29T17:56:17.664Z,1.51
2023-01-29T17:58:44.545Z,1.45
2023-01-29T18:01:11.186Z,1.47
2023-01-29T18:03:39.465Z,1.47
2023-01-29T18:06:10.310Z,1.41
2023-01-29T18:08:38.347Z,1.44
2023-01-29T18:11:05.190Z,1.34
2023-01-29T18:13:31.769Z,1.42
2023-01-29T18:15:58.484Z,1.48
2023-01-29T18:18:25.138Z,1.49
2023-01-29T18:20:51.805Z,1.39
2023-01-29T18:23:18.870Z,1.33
2023-01-29T18:25:45.782Z,1.38
2023-01-29T18:28:17.657Z,1.44
2023-01-29T18:30:47.091Z,1.44
2023-01-29T18:33:15.272Z,1.39
2023-01-29T18:35:45.450Z,1.37
2023-01-29T18:38:12.123Z,1.40
2023-01-29T18:40:38.716Z,1.35
2023-01-29T18:43:05.398Z,1.40
2023-01-29T18:45:32.111Z,1.45
2023-01-29T18:47:58.959Z,1.44
2023-01-29T18:50:26.581Z,1.47
2023-01-29T18:52:54.058Z,1.42
2023-01-29T18:55:21.423Z,1.40
2023-01-29T18:58:27.830Z,1.36
2023-01-29T19:00:34.999Z,1.41
2023-01-29T19:03:02.328Z,1.44
2023-01-29T19:05:28.988Z,1.29
2023-01-29T19:07:55.809Z,1.34
2023-01-29T19:10:22.727Z,1.24
2023-01-29T19:12:49.505Z,1.27
2023-01-29T19:15:20.531Z,1.22
2023-01-29T19:17:47.182Z,1.15
2023-01-29T19:20:13.923Z,1.20
2023-01-29T19:22:40.969Z,1.19
2023-01-29T19:25:08.593Z,1.17
2023-01-29T19:27:35.264Z,1.19
2023-01-29T19:30:04.053Z,1.17
2023-01-29T19:32:30.817Z,1.11
2023-01-29T19:34:58.334Z,1.01
2023-01-29T19:37:25.623Z,1.04
2023-01-29T19:39:53.898Z,1.04
2023-01-29T19:42:20.947Z,1.00
2023-01-29T19:44:48.037Z,1.02
2023-01-29T19:47:15.042Z,1.11
2023-01-29T19:49:41.973Z,1.04
2023-01-29T19:52:33.519Z,1.07
2023-01-29T19:55:04.670Z,1.04
2023-01-29T19:57:32.251Z,1.00
2023-01-29T20:00:00.005Z,0.97
2023-01-29T20:02:28.410Z,1.01
2023-01-29T20:04:55.618Z,1.00
2023-01-29T20:07:22.969Z,1.00
2023-01-29T20:09:51.901Z,0.97
2023-01-29T20:12:19.366Z,0.99
2023-01-29T20:14:48.961Z,1.01
2023-01-29T20:17:16.938Z,1.04
2023-01-29T20:19:46.948Z,1.05
2023-01-29T20:22:13.723Z,0.98
2023-01-29T20:24:42.514Z,1.02
2023-01-29T20:27:10.689Z,0.98
2023-01-29T20:29:38.610Z,1.01
2023-01-29T20:32:07.905Z,0.99
2023-01-29T20:34:35.273Z,1.05
2023-01-29T20:37:02.100Z,1.07
2023-01-29T20:39:28.757Z,1.01
2023-01-29T20:41:57.514Z,1.04
2023-01-29T20:44:25.007Z,1.01
2023-01-29T20:46:51.994Z,1.06
2023-01-29T20:49:19.293Z,1.10
2023-01-29T20:51:46.238Z,1.04
2023-01-29T20:54:13.138Z,1.08
2023-01-29T20:56:44.355Z,1.03
2023-01-29T20:59:13.421Z,1.02
2023-01-29T21:01:40.565Z,1.13
2023-01-29T21:04:07.145Z,1.09
2023-01-29T21:06:33.767Z,1.05
2023-01-29T21:09:00.504Z,1.00
2023-01-29T21:11:27.172Z,1.07
2023-01-29T21:13:57.589Z,1.12
2023-01-29T21:16:26.224Z,1.11
2023-01-29T21:18:59.627Z,1.10
2023-01-29T21:21:26.730Z,1.13
2023-01-29T21:23:53.734Z,1.15
2023-01-29T21:26:20.531Z,1.14
2023-01-29T21:28:47.218Z,1.13
2023-01-29T21:31:16.211Z,1.06
2023-01-29T21:33:43.192Z,1.16
2023-01-29T21:36:10.293Z,1.16
2023-01-29T21:38:37.102Z,1.15
2023-01-29T21:41:05.628Z,1.17
2023-01-29T21:43:32.272Z,1.16
2023-01-29T21:46:12.090Z,1.15
2023-01-29T21:48:39.838Z,1.12
2023-01-29T21:51:06.595Z,1.19
2023-01-29T21:53:33.443Z,1.19
2023-01-29T21:56:04.959Z,1.25
2023-01-29T21:58:31.928Z,1.23
2023-01-29T22:01:11.439Z,1.23
2023-01-29T22:03:47.184Z,1.23
2023-01-29T22:06:14.969Z,1.25
2023-01-29T22:08:41.634Z,1.27
2023-01-29T22:11:11.726Z,1.28
2023-01-29T22:13:38.959Z,1.31
2023-01-29T22:16:06.304Z,1.27
2023-01-29T22:18:33.341Z,1.30
2023-01-29T22:21:02.960Z,1.22
2023-01-29T22:23:31.821Z,1.27
2023-01-29T22:26:05.983Z,1.28
2023-01-29T22:28:32.665Z,1.32
2023-01-29T22:31:03.781Z,1.31
2023-01-29T22:33:31.393Z,1.25
2023-01-29T22:36:01.354Z,1.34
2023-01-29T22:38:28.183Z,1.34
2023-01-29T22:40:55.805Z,1.31
2023-01-29T22:43:23.047Z,1.30
2023-01-29T22:45:49.732Z,1.36
2023-01-29T22:48:16.363Z,1.40
2023-01-29T22:50:43.167Z,1.34
2023-01-29T22:53:09.786Z,1.37
2023-01-29T22:55:36.494Z,1.27
2023-01-29T22:58:03.213Z,1.30
2023-01-29T23:00:30.059Z,1.32
2023-01-29T23:02:56.728Z,1.29
2023-01-29T23:05:23.304Z,1.36
2023-01-29T23:07:49.967Z,1.35
2023-01-29T23:10:17.297Z,1.37
2023-01-29T23:12:44.159Z,1.36
2023-01-29T23:15:15.026Z,1.32
2023-01-29T23:17:41.853Z,1.35
2023-01-29T23:20:08.830Z,1.31
2023-01-29T23:22:35.531Z,1.32
2023-01-29T23:25:02.797Z,1.35
2023-01-29T23:27:29.606Z,1.33
2023-01-29T23:29:56.295Z,1.35
2023-01-29T23:32:23.027Z,1.33
2023-01-29T23:34:49.708Z,1.37
2023-01-29T23:37:16.663Z,1.38
2023-01-29T23:39:43.270Z,1.39
2023-01-29T23:42:09.927Z,1.37
2023-01-29T23:44:36.946Z,1.42
2023-01-29T23:47:03.797Z,1.34
2023-01-29T23:49:30.806Z,1.42
2023-01-29T23:51:57.518Z,1.39
2023-01-29T23:54:24.257Z,1.44
2023-01-29T23:56:51.121Z,1.44
2023-01-29T23:59:18.239Z,1.42
